sensor_id;sensor_type;location;lat;lon;timestamp;temperature;humidity
18260;DHT22;9256;52.236;5.712;2023-10-09T00:02:07;12.90;99.90
18260;DHT22;9256;52.236;5.712;2023-10-09T00:04:35;12.90;99.90
18260;DHT22;9256;52.236;5.712;2023-10-09T00:07:03;12.90;99.90
18260;DHT22;9256;52.236;5.712;2023-10-09T00:09:34;12.90;99.90
18260;DHT22;9256;52.236;5.712;2023-10-09T00:12:13;12.90;99.90
18260;DHT22;9256;52.236;5.712;2023-10-09T00:14:43;12.90;99.90
18260;DHT22;9256;52.236;5.712;2023-10-09T00:17:14;12.90;99.90
18260;DHT22;9256;52.236;5.712;2023-10-09T00:19:44;12.80;99.90
18260;DHT22;9256;52.236;5.712;2023-10-09T00:22:14;12.80;99.90
18260;DHT22;9256;52.236;5.712;2023-10-09T00:24:52;12.80;99.90
18260;DHT22;9256;52.236;5.712;2023-10-09T00:27:37;12.80;99.90
18260;DHT22;9256;52.236;5.712;2023-10-09T00:30:10;12.80;99.90
18260;DHT22;9256;52.236;5.712;2023-10-09T00:32:41;12.90;99.90
18260;DHT22;9256;52.236;5.712;2023-10-09T00:35:25;12.90;99.90
18260;DHT22;9256;52.236;5.712;2023-10-09T00:38:02;12.90;99.90
18260;DHT22;9256;52.236;5.712;2023-10-09T00:40:40;12.90;99.90
18260;DHT22;9256;52.236;5.712;2023-10-09T00:43:12;13.00;99.90
18260;DHT22;9256;52.236;5.712;2023-10-09T00:45:41;13.00;99.90
18260;DHT22;9256;52.236;5.712;2023-10-09T00:48:11;13.00;99.90
18260;DHT22;9256;52.236;5.712;2023-10-09T00:50:40;13.00;99.90
18260;DHT22;9256;52.236;5.712;2023-10-09T00:53:17;13.10;99.90
18260;DHT22;9256;52.236;5.712;2023-10-09T00:55:56;13.10;99.90
18260;DHT22;9256;52.236;5.712;2023-10-09T00:58:23;13.20;99.90
18260;DHT22;9256;52.236;5.712;2023-10-09T01:00:57;13.30;99.90
18260;DHT22;9256;52.236;5.712;2023-10-09T01:03:25;13.30;99.90
18260;DHT22;9256;52.236;5.712;2023-10-09T01:05:55;13.40;99.90
18260;DHT22;9256;52.236;5.712;2023-10-09T01:08:41;13.40;99.90
18260;DHT22;9256;52.236;5.712;2023-10-09T01:11:13;13.40;99.90
18260;DHT22;9256;52.236;5.712;2023-10-09T01:13:45;13.40;99.90
18260;DHT22;9256;52.236;5.712;2023-10-09T01:16:22;13.50;99.90
18260;DHT22;9256;52.236;5.712;2023-10-09T01:18:50;13.60;99.90
18260;DHT22;9256;52.236;5.712;2023-10-09T01:21:18;13.60;99.90
18260;DHT22;9256;52.236;5.712;2023-10-09T01:23:51;13.70;99.90
18260;DHT22;9256;52.236;5.712;2023-10-09T01:26:30;13.70;99.90
18260;DHT22;9256;52.236;5.712;2023-10-09T01:29:00;13.80;99.90
18260;DHT22;9256;52.236;5.712;2023-10-09T01:31:27;13.80;99.90
18260;DHT22;9256;52.236;5.712;2023-10-09T01:33:59;13.80;99.90
18260;DHT22;9256;52.236;5.712;2023-10-09T01:36:26;13.80;99.90
18260;DHT22;9256;52.236;5.712;2023-10-09T01:39:00;13.80;99.90
18260;DHT22;9256;52.236;5.712;2023-10-09T01:41:33;13.80;99.90
18260;DHT22;9256;52.236;5.712;2023-10-09T01:44:00;13.80;99.90
18260;DHT22;9256;52.236;5.712;2023-10-09T01:46:36;13.90;99.90
18260;DHT22;9256;52.236;5.712;2023-10-09T01:49:03;13.90;99.90
18260;DHT22;9256;52.236;5.712;2023-10-09T01:51:36;13.90;99.90
18260;DHT22;9256;52.236;5.712;2023-10-09T01:54:05;13.90;99.90
18260;DHT22;9256;52.236;5.712;2023-10-09T01:56:32;13.90;99.90
18260;DHT22;9256;52.236;5.712;2023-10-09T01:59:02;13.90;99.90
18260;DHT22;9256;52.236;5.712;2023-10-09T02:01:31;13.90;99.90
18260;DHT22;9256;52.236;5.712;2023-10-09T02:03:59;13.90;99.90
18260;DHT22;9256;52.236;5.712;2023-10-09T02:06:39;13.90;99.90
18260;DHT22;9256;52.236;5.712;2023-10-09T02:09:07;13.90;99.90
18260;DHT22;9256;52.236;5.712;2023-10-09T02:11:45;13.90;99.90
18260;DHT22;9256;52.236;5.712;2023-10-09T02:14:12;13.90;99.90
18260;DHT22;9256;52.236;5.712;2023-10-09T02:16:46;14.00;99.90
18260;DHT22;9256;52.236;5.712;2023-10-09T02:19:29;14.00;99.90
18260;DHT22;9256;52.236;5.712;2023-10-09T02:21:57;13.90;99.90
18260;DHT22;9256;52.236;5.712;2023-10-09T02:24:27;13.90;99.90
18260;DHT22;9256;52.236;5.712;2023-10-09T02:27:15;13.90;99.90
18260;DHT22;9256;52.236;5.712;2023-10-09T02:30:07;14.00;99.90
18260;DHT22;9256;52.236;5.712;2023-10-09T02:32:45;14.00;99.90
18260;DHT22;9256;52.236;5.712;2023-10-09T02:35:18;14.00;99.90
18260;DHT22;9256;52.236;5.712;2023-10-09T02:37:54;14.10;99.90
18260;DHT22;9256;52.236;5.712;2023-10-09T02:40:22;14.10;99.90
18260;DHT22;9256;52.236;5.712;2023-10-09T02:42:53;14.10;99.90
18260;DHT22;9256;52.236;5.712;2023-10-09T02:45:20;14.10;99.90
18260;DHT22;9256;52.236;5.712;2023-10-09T02:47:54;14.10;99.90
18260;DHT22;9256;52.236;5.712;2023-10-09T02:50:21;14.10;99.90
18260;DHT22;9256;52.236;5.712;2023-10-09T02:52:48;14.10;99.90
18260;DHT22;9256;52.236;5.712;2023-10-09T02:55:20;14.20;99.90
18260;DHT22;9256;52.236;5.712;2023-10-09T02:57:53;14.20;99.90
18260;DHT22;9256;52.236;5.712;2023-10-09T03:00:31;14.20;99.90
18260;DHT22;9256;52.236;5.712;2023-10-09T03:03:02;14.20;99.90
18260;DHT22;9256;52.236;5.712;2023-10-09T03:05:32;14.20;99.90
18260;DHT22;9256;52.236;5.712;2023-10-09T03:07:59;14.20;99.90
18260;DHT22;9256;52.236;5.712;2023-10-09T03:10:27;14.20;99.90
18260;DHT22;9256;52.236;5.712;2023-10-09T03:12:56;14.30;99.90
18260;DHT22;9256;52.236;5.712;2023-10-09T03:15:27;14.30;99.90
18260;DHT22;9256;52.236;5.712;2023-10-09T03:18:01;14.30;99.90
18260;DHT22;9256;52.236;5.712;2023-10-09T03:20:30;14.30;99.90
18260;DHT22;9256;52.236;5.712;2023-10-09T03:22:57;14.30;99.90
18260;DHT22;9256;52.236;5.712;2023-10-09T03:25:26;14.30;99.90
18260;DHT22;9256;52.236;5.712;2023-10-09T03:27:53;14.30;99.90
18260;DHT22;9256;52.236;5.712;2023-10-09T03:30:23;14.30;99.90
18260;DHT22;9256;52.236;5.712;2023-10-09T03:32:50;14.20;99.90
18260;DHT22;9256;52.236;5.712;2023-10-09T03:35:17;14.20;99.90
18260;DHT22;9256;52.236;5.712;2023-10-09T03:37:52;14.20;99.90
18260;DHT22;9256;52.236;5.712;2023-10-09T03:40:22;14.20;99.90
18260;DHT22;9256;52.236;5.712;2023-10-09T03:42:50;14.30;99.90
18260;DHT22;9256;52.236;5.712;2023-10-09T03:45:18;14.30;99.90
18260;DHT22;9256;52.236;5.712;2023-10-09T03:47:55;14.30;99.90
18260;DHT22;9256;52.236;5.712;2023-10-09T03:50:28;14.30;99.90
18260;DHT22;9256;52.236;5.712;2023-10-09T03:53:02;14.30;99.90
18260;DHT22;9256;52.236;5.712;2023-10-09T03:55:32;14.30;99.90
18260;DHT22;9256;52.236;5.712;2023-10-09T03:57:59;14.30;99.90
18260;DHT22;9256;52.236;5.712;2023-10-09T04:00:29;14.40;99.90
18260;DHT22;9256;52.236;5.712;2023-10-09T04:02:58;14.40;99.90
18260;DHT22;9256;52.236;5.712;2023-10-09T04:05:25;14.40;99.90
18260;DHT22;9256;52.236;5.712;2023-10-09T04:07:54;14.50;99.90
18260;DHT22;9256;52.236;5.712;2023-10-09T04:10:24;14.50;99.90
18260;DHT22;9256;52.236;5.712;2023-10-09T04:13:09;14.50;99.90
18260;DHT22;9256;52.236;5.712;2023-10-09T04:15:42;14.60;99.90
18260;DHT22;9256;52.236;5.712;2023-10-09T04:18:10;14.60;99.90
18260;DHT22;9256;52.236;5.712;2023-10-09T04:20:41;14.60;99.90
18260;DHT22;9256;52.236;5.712;2023-10-09T04:23:25;14.60;99.90
18260;DHT22;9256;52.236;5.712;2023-10-09T04:26:19;14.60;99.90
18260;DHT22;9256;52.236;5.712;2023-10-09T04:28:46;14.60;99.90
18260;DHT22;9256;52.236;5.712;2023-10-09T04:31:17;14.70;99.90
18260;DHT22;9256;52.236;5.712;2023-10-09T04:33:46;14.70;99.90
18260;DHT22;9256;52.236;5.712;2023-10-09T04:36:40;14.70;99.90
18260;DHT22;9256;52.236;5.712;2023-10-09T04:39:15;14.60;99.90
18260;DHT22;9256;52.236;5.712;2023-10-09T04:42:03;14.70;99.90
18260;DHT22;9256;52.236;5.712;2023-10-09T04:44:52;14.70;99.90
18260;DHT22;9256;52.236;5.712;2023-10-09T04:47:38;14.70;99.90
18260;DHT22;9256;52.236;5.712;2023-10-09T04:50:16;14.80;99.90
18260;DHT22;9256;52.236;5.712;2023-10-09T04:52:57;14.70;99.90
18260;DHT22;9256;52.236;5.712;2023-10-09T04:55:44;14.80;99.90
18260;DHT22;9256;52.236;5.712;2023-10-09T04:58:19;14.70;99.90
18260;DHT22;9256;52.236;5.712;2023-10-09T05:00:51;14.80;99.90
18260;DHT22;9256;52.236;5.712;2023-10-09T05:03:32;14.80;99.90
18260;DHT22;9256;52.236;5.712;2023-10-09T05:06:13;14.80;99.90
18260;DHT22;9256;52.236;5.712;2023-10-09T05:08:57;14.80;99.90
18260;DHT22;9256;52.236;5.712;2023-10-09T05:11:34;14.80;99.90
18260;DHT22;9256;52.236;5.712;2023-10-09T05:14:19;14.80;99.90
18260;DHT22;9256;52.236;5.712;2023-10-09T05:16:53;14.80;99.90
18260;DHT22;9256;52.236;5.712;2023-10-09T05:19:26;14.80;99.90
18260;DHT22;9256;52.236;5.712;2023-10-09T05:22:09;14.90;99.90
18260;DHT22;9256;52.236;5.712;2023-10-09T05:24:43;14.90;99.90
18260;DHT22;9256;52.236;5.712;2023-10-09T05:27:13;15.00;99.90
18260;DHT22;9256;52.236;5.712;2023-10-09T05:29:49;14.90;99.90
18260;DHT22;9256;52.236;5.712;2023-10-09T05:32:38;14.90;99.90
18260;DHT22;9256;52.236;5.712;2023-10-09T05:35:14;15.00;99.90
18260;DHT22;9256;52.236;5.712;2023-10-09T05:37:43;15.00;99.90
18260;DHT22;9256;52.236;5.712;2023-10-09T05:40:10;15.00;99.90
18260;DHT22;9256;52.236;5.712;2023-10-09T05:42:49;15.00;99.90
18260;DHT22;9256;52.236;5.712;2023-10-09T05:45:25;15.00;99.90
18260;DHT22;9256;52.236;5.712;2023-10-09T05:48:24;15.00;99.90
18260;DHT22;9256;52.236;5.712;2023-10-09T05:51:14;14.90;99.90
18260;DHT22;9256;52.236;5.712;2023-10-09T05:54:07;15.00;99.90
18260;DHT22;9256;52.236;5.712;2023-10-09T05:56:51;14.90;99.90
18260;DHT22;9256;52.236;5.712;2023-10-09T05:59:56;14.90;99.90
18260;DHT22;9256;52.236;5.712;2023-10-09T06:02:40;14.90;99.90
18260;DHT22;9256;52.236;5.712;2023-10-09T06:05:29;15.00;99.90
18260;DHT22;9256;52.236;5.712;2023-10-09T06:08:28;15.00;99.90
18260;DHT22;9256;52.236;5.712;2023-10-09T06:11:20;15.10;99.90
18260;DHT22;9256;52.236;5.712;2023-10-09T06:14:01;15.10;99.90
18260;DHT22;9256;52.236;5.712;2023-10-09T06:16:30;15.10;99.90
18260;DHT22;9256;52.236;5.712;2023-10-09T06:19:07;15.20;99.90
18260;DHT22;9256;52.236;5.712;2023-10-09T06:21:38;15.20;99.90
18260;DHT22;9256;52.236;5.712;2023-10-09T06:24:07;15.30;99.90
18260;DHT22;9256;52.236;5.712;2023-10-09T06:26:42;15.30;99.90
18260;DHT22;9256;52.236;5.712;2023-10-09T06:29:18;15.40;99.90
18260;DHT22;9256;52.236;5.712;2023-10-09T06:32:01;15.40;99.90
18260;DHT22;9256;52.236;5.712;2023-10-09T06:34:57;15.40;99.90
18260;DHT22;9256;52.236;5.712;2023-10-09T06:37:41;15.50;99.90
18260;DHT22;9256;52.236;5.712;2023-10-09T06:40:39;15.40;99.90
18260;DHT22;9256;52.236;5.712;2023-10-09T06:43:28;15.50;99.90
18260;DHT22;9256;52.236;5.712;2023-10-09T06:45:58;15.40;99.90
18260;DHT22;9256;52.236;5.712;2023-10-09T06:48:45;15.40;99.90
18260;DHT22;9256;52.236;5.712;2023-10-09T06:51:13;15.40;99.90
18260;DHT22;9256;52.236;5.712;2023-10-09T06:54:02;15.40;99.90
18260;DHT22;9256;52.236;5.712;2023-10-09T06:56:33;15.40;99.90
18260;DHT22;9256;52.236;5.712;2023-10-09T06:59:14;15.50;99.90
18260;DHT22;9256;52.236;5.712;2023-10-09T07:01:48;15.50;99.90
18260;DHT22;9256;52.236;5.712;2023-10-09T07:04:37;15.60;99.90
18260;DHT22;9256;52.236;5.712;2023-10-09T07:07:14;15.60;99.90
18260;DHT22;9256;52.236;5.712;2023-10-09T07:09:42;15.60;99.90
18260;DHT22;9256;52.236;5.712;2023-10-09T07:12:11;15.70;99.90
18260;DHT22;9256;52.236;5.712;2023-10-09T07:14:40;15.70;99.90
18260;DHT22;9256;52.236;5.712;2023-10-09T07:17:33;15.80;99.90
18260;DHT22;9256;52.236;5.712;2023-10-09T07:20:12;15.80;99.90
18260;DHT22;9256;52.236;5.712;2023-10-09T07:23:03;15.80;99.90
18260;DHT22;9256;52.236;5.712;2023-10-09T07:25:47;15.90;99.90
18260;DHT22;9256;52.236;5.712;2023-10-09T07:28:24;15.90;99.90
18260;DHT22;9256;52.236;5.712;2023-10-09T07:31:08;16.00;99.90
18260;DHT22;9256;52.236;5.712;2023-10-09T07:33:50;16.10;99.90
18260;DHT22;9256;52.236;5.712;2023-10-09T07:36:22;16.20;99.90
18260;DHT22;9256;52.236;5.712;2023-10-09T07:39:05;16.30;99.90
18260;DHT22;9256;52.236;5.712;2023-10-09T07:41:42;16.40;99.90
18260;DHT22;9256;52.236;5.712;2023-10-09T07:44:22;16.40;99.90
18260;DHT22;9256;52.236;5.712;2023-10-09T07:47:03;16.50;99.90
18260;DHT22;9256;52.236;5.712;2023-10-09T07:49:48;16.50;99.90
18260;DHT22;9256;52.236;5.712;2023-10-09T07:52:20;16.60;99.90
18260;DHT22;9256;52.236;5.712;2023-10-09T07:54:52;16.70;99.90
18260;DHT22;9256;52.236;5.712;2023-10-09T07:57:29;16.70;99.90
18260;DHT22;9256;52.236;5.712;2023-10-09T08:00:05;16.80;99.90
18260;DHT22;9256;52.236;5.712;2023-10-09T08:02:38;16.90;99.90
18260;DHT22;9256;52.236;5.712;2023-10-09T08:05:05;16.90;99.90
18260;DHT22;9256;52.236;5.712;2023-10-09T08:07:44;16.90;99.90
18260;DHT22;9256;52.236;5.712;2023-10-09T08:10:22;16.90;99.90
18260;DHT22;9256;52.236;5.712;2023-10-09T08:13:06;17.00;99.90
18260;DHT22;9256;52.236;5.712;2023-10-09T08:16:07;17.20;99.90
18260;DHT22;9256;52.236;5.712;2023-10-09T08:18:42;17.40;99.90
18260;DHT22;9256;52.236;5.712;2023-10-09T08:21:11;17.40;99.90
18260;DHT22;9256;52.236;5.712;2023-10-09T08:24:06;17.40;99.90
18260;DHT22;9256;52.236;5.712;2023-10-09T08:26:54;17.50;99.90
18260;DHT22;9256;52.236;5.712;2023-10-09T08:29:44;17.60;99.90
18260;DHT22;9256;52.236;5.712;2023-10-09T08:32:13;17.60;99.90
18260;DHT22;9256;52.236;5.712;2023-10-09T08:35:04;17.70;99.90
18260;DHT22;9256;52.236;5.712;2023-10-09T08:37:44;17.80;99.90
18260;DHT22;9256;52.236;5.712;2023-10-09T08:40:14;17.80;99.90
18260;DHT22;9256;52.236;5.712;2023-10-09T08:42:52;17.80;99.90
18260;DHT22;9256;52.236;5.712;2023-10-09T08:45:24;17.90;99.90
18260;DHT22;9256;52.236;5.712;2023-10-09T08:47:54;17.90;99.90
18260;DHT22;9256;52.236;5.712;2023-10-09T08:50:21;17.90;99.90
18260;DHT22;9256;52.236;5.712;2023-10-09T08:52:48;18.00;99.90
18260;DHT22;9256;52.236;5.712;2023-10-09T08:55:17;18.10;99.90
18260;DHT22;9256;52.236;5.712;2023-10-09T08:57:44;18.20;99.90
18260;DHT22;9256;52.236;5.712;2023-10-09T09:00:18;18.30;99.90
18260;DHT22;9256;52.236;5.712;2023-10-09T09:02:49;18.40;99.90
18260;DHT22;9256;52.236;5.712;2023-10-09T09:05:22;18.40;99.90
18260;DHT22;9256;52.236;5.712;2023-10-09T09:07:54;18.50;99.90
18260;DHT22;9256;52.236;5.712;2023-10-09T09:10:27;18.70;99.90
18260;DHT22;9256;52.236;5.712;2023-10-09T09:13:01;18.80;99.90
18260;DHT22;9256;52.236;5.712;2023-10-09T09:15:30;18.80;99.90
18260;DHT22;9256;52.236;5.712;2023-10-09T09:18:05;19.00;99.90
18260;DHT22;9256;52.236;5.712;2023-10-09T09:20:36;19.00;99.90
18260;DHT22;9256;52.236;5.712;2023-10-09T09:23:09;19.00;99.90
18260;DHT22;9256;52.236;5.712;2023-10-09T09:25:42;19.00;99.90
18260;DHT22;9256;52.236;5.712;2023-10-09T09:28:14;19.20;99.90
18260;DHT22;9256;52.236;5.712;2023-10-09T09:30:47;19.30;99.90
18260;DHT22;9256;52.236;5.712;2023-10-09T09:33:21;19.30;99.90
18260;DHT22;9256;52.236;5.712;2023-10-09T09:36:00;19.40;99.90
18260;DHT22;9256;52.236;5.712;2023-10-09T09:38:30;19.30;99.90
18260;DHT22;9256;52.236;5.712;2023-10-09T09:41:13;19.30;99.90
18260;DHT22;9256;52.236;5.712;2023-10-09T09:43:52;19.30;99.90
18260;DHT22;9256;52.236;5.712;2023-10-09T09:46:22;19.30;99.90
18260;DHT22;9256;52.236;5.712;2023-10-09T09:49:00;19.30;99.90
18260;DHT22;9256;52.236;5.712;2023-10-09T09:51:29;19.30;99.90
18260;DHT22;9256;52.236;5.712;2023-10-09T09:53:56;19.40;99.90
18260;DHT22;9256;52.236;5.712;2023-10-09T09:56:25;19.40;99.90
18260;DHT22;9256;52.236;5.712;2023-10-09T09:58:52;19.40;99.90
18260;DHT22;9256;52.236;5.712;2023-10-09T10:01:28;19.50;99.90
18260;DHT22;9256;52.236;5.712;2023-10-09T10:04:01;19.40;99.90
18260;DHT22;9256;52.236;5.712;2023-10-09T10:06:33;19.40;99.90
18260;DHT22;9256;52.236;5.712;2023-10-09T10:09:00;19.40;99.90
18260;DHT22;9256;52.236;5.712;2023-10-09T10:11:44;19.40;99.90
18260;DHT22;9256;52.236;5.712;2023-10-09T10:14:12;19.30;99.90
18260;DHT22;9256;52.236;5.712;2023-10-09T10:17:07;19.40;99.90
18260;DHT22;9256;52.236;5.712;2023-10-09T10:20:04;19.40;99.90
18260;DHT22;9256;52.236;5.712;2023-10-09T10:22:51;19.40;99.90
18260;DHT22;9256;52.236;5.712;2023-10-09T10:25:33;19.40;99.90
18260;DHT22;9256;52.236;5.712;2023-10-09T10:28:20;19.60;99.90
18260;DHT22;9256;52.236;5.712;2023-10-09T10:31:05;19.80;99.90
18260;DHT22;9256;52.236;5.712;2023-10-09T10:34:05;19.80;99.90
18260;DHT22;9256;52.236;5.712;2023-10-09T10:36:36;20.10;99.90
18260;DHT22;9256;52.236;5.712;2023-10-09T10:39:08;20.10;99.90
18260;DHT22;9256;52.236;5.712;2023-10-09T10:41:36;20.10;99.90
18260;DHT22;9256;52.236;5.712;2023-10-09T10:44:24;20.20;99.90
18260;DHT22;9256;52.236;5.712;2023-10-09T10:47:11;20.10;99.90
18260;DHT22;9256;52.236;5.712;2023-10-09T10:49:53;20.20;99.90
18260;DHT22;9256;52.236;5.712;2023-10-09T10:52:25;20.20;99.90
18260;DHT22;9256;52.236;5.712;2023-10-09T10:55:11;20.20;99.90
18260;DHT22;9256;52.236;5.712;2023-10-09T10:57:44;20.20;99.90
18260;DHT22;9256;52.236;5.712;2023-10-09T11:00:26;20.40;99.90
18260;DHT22;9256;52.236;5.712;2023-10-09T11:03:17;20.40;99.90
18260;DHT22;9256;52.236;5.712;2023-10-09T11:05:50;20.50;99.90
18260;DHT22;9256;52.236;5.712;2023-10-09T11:08:18;20.40;99.90
18260;DHT22;9256;52.236;5.712;2023-10-09T11:10:49;20.30;99.90
18260;DHT22;9256;52.236;5.712;2023-10-09T11:13:23;20.20;99.90
18260;DHT22;9256;52.236;5.712;2023-10-09T11:15:59;20.40;99.90
18260;DHT22;9256;52.236;5.712;2023-10-09T11:18:41;20.40;99.90
18260;DHT22;9256;52.236;5.712;2023-10-09T11:21:13;20.40;99.90
18260;DHT22;9256;52.236;5.712;2023-10-09T11:23:58;20.40;99.90
18260;DHT22;9256;52.236;5.712;2023-10-09T11:26:25;20.20;99.90
18260;DHT22;9256;52.236;5.712;2023-10-09T11:29:07;20.20;99.90
18260;DHT22;9256;52.236;5.712;2023-10-09T11:31:39;20.40;99.90
18260;DHT22;9256;52.236;5.712;2023-10-09T11:34:18;20.50;99.90
18260;DHT22;9256;52.236;5.712;2023-10-09T11:36:56;20.70;99.90
18260;DHT22;9256;52.236;5.712;2023-10-09T11:39:25;20.60;99.90
18260;DHT22;9256;52.236;5.712;2023-10-09T11:42:04;20.50;99.90
18260;DHT22;9256;52.236;5.712;2023-10-09T11:44:38;20.50;99.90
18260;DHT22;9256;52.236;5.712;2023-10-09T11:47:05;20.30;99.90
18260;DHT22;9256;52.236;5.712;2023-10-09T11:49:49;20.20;99.90
18260;DHT22;9256;52.236;5.712;2023-10-09T11:52:25;20.00;99.90
18260;DHT22;9256;52.236;5.712;2023-10-09T11:55:04;20.00;99.90
18260;DHT22;9256;52.236;5.712;2023-10-09T11:57:33;19.90;99.90
18260;DHT22;9256;52.236;5.712;2023-10-09T12:00:01;19.80;99.90
18260;DHT22;9256;52.236;5.712;2023-10-09T12:02:36;19.60;99.90
18260;DHT22;9256;52.236;5.712;2023-10-09T12:05:10;19.70;99.90
18260;DHT22;9256;52.236;5.712;2023-10-09T12:07:44;19.70;99.90
18260;DHT22;9256;52.236;5.712;2023-10-09T12:10:11;19.60;99.90
18260;DHT22;9256;52.236;5.712;2023-10-09T12:12:39;19.60;99.90
18260;DHT22;9256;52.236;5.712;2023-10-09T12:15:12;19.60;99.90
18260;DHT22;9256;52.236;5.712;2023-10-09T12:17:43;19.60;99.90
18260;DHT22;9256;52.236;5.712;2023-10-09T12:20:12;19.70;99.90
18260;DHT22;9256;52.236;5.712;2023-10-09T12:22:57;19.70;99.90
18260;DHT22;9256;52.236;5.712;2023-10-09T12:25:25;19.70;99.90
18260;DHT22;9256;52.236;5.712;2023-10-09T12:27:52;19.60;99.90
18260;DHT22;9256;52.236;5.712;2023-10-09T12:30:23;19.40;99.90
18260;DHT22;9256;52.236;5.712;2023-10-09T12:32:53;19.30;99.90
18260;DHT22;9256;52.236;5.712;2023-10-09T12:35:23;19.30;99.90
18260;DHT22;9256;52.236;5.712;2023-10-09T12:37:51;19.20;99.90
18260;DHT22;9256;52.236;5.712;2023-10-09T12:40:21;19.30;99.90
18260;DHT22;9256;52.236;5.712;2023-10-09T12:42:55;19.20;99.90
18260;DHT22;9256;52.236;5.712;2023-10-09T12:45:24;19.20;99.90
18260;DHT22;9256;52.236;5.712;2023-10-09T12:47:53;19.20;99.90
18260;DHT22;9256;52.236;5.712;2023-10-09T12:50:24;19.20;99.90
18260;DHT22;9256;52.236;5.712;2023-10-09T12:52:55;19.20;99.90
18260;DHT22;9256;52.236;5.712;2023-10-09T12:55:24;19.20;99.90
18260;DHT22;9256;52.236;5.712;2023-10-09T12:58:01;19.10;99.90
18260;DHT22;9256;52.236;5.712;2023-10-09T13:00:32;19.00;99.90
18260;DHT22;9256;52.236;5.712;2023-10-09T13:02:59;19.00;99.90
18260;DHT22;9256;52.236;5.712;2023-10-09T13:05:27;19.00;99.90
18260;DHT22;9256;52.236;5.712;2023-10-09T13:07:54;19.00;99.90
18260;DHT22;9256;52.236;5.712;2023-10-09T13:10:25;19.00;99.90
18260;DHT22;9256;52.236;5.712;2023-10-09T13:12:57;19.00;99.90
18260;DHT22;9256;52.236;5.712;2023-10-09T13:15:24;19.00;99.90
18260;DHT22;9256;52.236;5.712;2023-10-09T13:17:53;19.00;99.90
18260;DHT22;9256;52.236;5.712;2023-10-09T13:20:20;19.10;99.90
18260;DHT22;9256;52.236;5.712;2023-10-09T13:22:47;19.10;99.90
18260;DHT22;9256;52.236;5.712;2023-10-09T13:25:14;19.10;99.90
18260;DHT22;9256;52.236;5.712;2023-10-09T13:27:44;19.10;99.90
18260;DHT22;9256;52.236;5.712;2023-10-09T13:30:17;19.00;99.90
18260;DHT22;9256;52.236;5.712;2023-10-09T13:32:49;18.90;99.90
18260;DHT22;9256;52.236;5.712;2023-10-09T13:35:17;18.90;99.90
18260;DHT22;9256;52.236;5.712;2023-10-09T13:38:03;18.90;99.90
18260;DHT22;9256;52.236;5.712;2023-10-09T13:40:34;18.80;99.90
18260;DHT22;9256;52.236;5.712;2023-10-09T13:43:04;18.70;99.90
18260;DHT22;9256;52.236;5.712;2023-10-09T13:45:31;18.60;99.90
18260;DHT22;9256;52.236;5.712;2023-10-09T13:47:59;18.60;99.90
18260;DHT22;9256;52.236;5.712;2023-10-09T13:50:28;18.60;99.90
18260;DHT22;9256;52.236;5.712;2023-10-09T13:52:58;18.60;99.90
18260;DHT22;9256;52.236;5.712;2023-10-09T13:55:25;18.60;99.90
18260;DHT22;9256;52.236;5.712;2023-10-09T13:57:57;18.60;99.90
18260;DHT22;9256;52.236;5.712;2023-10-09T14:00:25;18.60;99.90
18260;DHT22;9256;52.236;5.712;2023-10-09T14:03:08;18.60;99.90
18260;DHT22;9256;52.236;5.712;2023-10-09T14:05:39;18.60;99.90
18260;DHT22;9256;52.236;5.712;2023-10-09T14:08:19;18.60;99.90
18260;DHT22;9256;52.236;5.712;2023-10-09T14:10:47;18.70;99.90
18260;DHT22;9256;52.236;5.712;2023-10-09T14:13:15;18.60;99.90
18260;DHT22;9256;52.236;5.712;2023-10-09T14:15:43;18.50;99.90
18260;DHT22;9256;52.236;5.712;2023-10-09T14:18:11;18.60;99.90
18260;DHT22;9256;52.236;5.712;2023-10-09T14:20:38;18.70;99.90
18260;DHT22;9256;52.236;5.712;2023-10-09T14:23:07;18.70;99.90
18260;DHT22;9256;52.236;5.712;2023-10-09T14:25:36;18.80;99.90
18260;DHT22;9256;52.236;5.712;2023-10-09T14:28:06;18.80;99.90
18260;DHT22;9256;52.236;5.712;2023-10-09T14:30:34;18.90;99.90
18260;DHT22;9256;52.236;5.712;2023-10-09T14:33:09;19.00;99.90
18260;DHT22;9256;52.236;5.712;2023-10-09T14:35:39;19.10;99.90
18260;DHT22;9256;52.236;5.712;2023-10-09T14:38:07;19.20;99.90
18260;DHT22;9256;52.236;5.712;2023-10-09T14:40:41;19.40;99.90
18260;DHT22;9256;52.236;5.712;2023-10-09T14:43:08;19.50;99.90
18260;DHT22;9256;52.236;5.712;2023-10-09T14:45:45;19.60;99.90
18260;DHT22;9256;52.236;5.712;2023-10-09T14:48:15;19.90;99.90
18260;DHT22;9256;52.236;5.712;2023-10-09T14:50:47;20.00;99.90
18260;DHT22;9256;52.236;5.712;2023-10-09T14:53:15;20.20;99.90
18260;DHT22;9256;52.236;5.712;2023-10-09T14:55:42;20.10;99.90
18260;DHT22;9256;52.236;5.712;2023-10-09T14:58:11;20.10;99.90
18260;DHT22;9256;52.236;5.712;2023-10-09T15:00:38;20.10;99.90
18260;DHT22;9256;52.236;5.712;2023-10-09T15:03:12;20.10;99.90
18260;DHT22;9256;52.236;5.712;2023-10-09T15:05:42;20.00;99.90
18260;DHT22;9256;52.236;5.712;2023-10-09T15:08:09;20.10;99.90
18260;DHT22;9256;52.236;5.712;2023-10-09T15:10:43;20.00;99.90
18260;DHT22;9256;52.236;5.712;2023-10-09T15:13:11;20.10;99.90
18260;DHT22;9256;52.236;5.712;2023-10-09T15:15:40;20.00;99.90
18260;DHT22;9256;52.236;5.712;2023-10-09T15:18:07;19.90;99.90
18260;DHT22;9256;52.236;5.712;2023-10-09T15:20:35;19.80;99.90
18260;DHT22;9256;52.236;5.712;2023-10-09T15:23:03;19.70;99.90
18260;DHT22;9256;52.236;5.712;2023-10-09T15:25:31;19.60;99.90
18260;DHT22;9256;52.236;5.712;2023-10-09T15:27:59;19.50;99.90
18260;DHT22;9256;52.236;5.712;2023-10-09T15:30:26;19.50;99.90
18260;DHT22;9256;52.236;5.712;2023-10-09T15:32:53;19.40;99.90
18260;DHT22;9256;52.236;5.712;2023-10-09T15:35:22;19.40;99.90
18260;DHT22;9256;52.236;5.712;2023-10-09T15:37:49;19.30;99.90
18260;DHT22;9256;52.236;5.712;2023-10-09T15:40:19;19.30;99.90
18260;DHT22;9256;52.236;5.712;2023-10-09T15:42:50;19.30;99.90
18260;DHT22;9256;52.236;5.712;2023-10-09T15:45:21;19.20;99.90
18260;DHT22;9256;52.236;5.712;2023-10-09T15:47:49;19.20;99.90
18260;DHT22;9256;52.236;5.712;2023-10-09T15:50:17;19.20;99.90
18260;DHT22;9256;52.236;5.712;2023-10-09T15:52:45;19.20;99.90
18260;DHT22;9256;52.236;5.712;2023-10-09T15:55:13;19.20;99.90
18260;DHT22;9256;52.236;5.712;2023-10-09T15:57:42;19.20;99.90
18260;DHT22;9256;52.236;5.712;2023-10-09T16:00:10;19.00;99.90
18260;DHT22;9256;52.236;5.712;2023-10-09T16:02:43;18.90;99.90
18260;DHT22;9256;52.236;5.712;2023-10-09T16:05:11;19.00;99.90
18260;DHT22;9256;52.236;5.712;2023-10-09T16:07:39;18.90;99.90
18260;DHT22;9256;52.236;5.712;2023-10-09T16:10:06;18.90;99.90
18260;DHT22;9256;52.236;5.712;2023-10-09T16:12:34;18.90;99.90
18260;DHT22;9256;52.236;5.712;2023-10-09T16:15:04;18.80;99.90
18260;DHT22;9256;52.236;5.712;2023-10-09T16:17:31;18.80;99.90
18260;DHT22;9256;52.236;5.712;2023-10-09T16:19:59;18.70;99.90
18260;DHT22;9256;52.236;5.712;2023-10-09T16:22:26;18.70;99.90
18260;DHT22;9256;52.236;5.712;2023-10-09T16:24:54;18.70;99.90
18260;DHT22;9256;52.236;5.712;2023-10-09T16:27:21;18.70;99.90
18260;DHT22;9256;52.236;5.712;2023-10-09T16:29:50;18.70;99.90